ADDS TAF Board (Experimental) INFO Settings
IDs: Format: Expanded Condensed

KMEM - Memphis Intl, TN, US

Issued at 1924 UTC 28 Jul 2016
Updated at 2016 UTC 28 Jul 2016
Time1954Z 28/21Z 28/22Z 28/23Z 29/00Z 29/01Z 29/02Z 29/03Z 29/04Z 29/05Z 29/06Z 29/07Z 29/08Z 29/09Z
Type OBS PRVL
  [TEMP]  
PRVL PRVL PRVL PRVL PRVL PRVL PRVL PRVL PRVL PRVL PRVL PRVL
VIS 10 >6
  [4]  
>6 >6 >6 >6 >6 >6 >6 >6 >6 >6 >6 >6
CIG 39 45
  [35]  
45 -- -- -- -- -- -- -- -- -- 25 25
Cover BKN BKN
  [BKN]  
BKN SCT SCT SCT SCT SCT SCT SCT SCT SCT BKN BKN
FltCat VFR VFR
  [MVFR]  
VFR VFR VFR VFR VFR VFR VFR VFR VFR VFR MVFR MVFR
WX -- VCTS
  [TSRA]  
VCTS -- -- -- -- -- -- -- -- -- VCSH VCSH
WDir 200 250
[VRB]
250 240 240 240 240 240 240 240 240 240 220 220
WSpd 8 9
  [10]  
9 8 8 8 8 8 8 8 8 8 4 4
WGst -- --
  [15]  
-- -- -- -- -- -- -- -- -- -- -- --
R09/27
XWnd -8 -3 -3 -4 -4 -4 -4 -4 -4 -4 -4 -4 -3 -3
XGst -- 0 -- -- -- -- -- -- -- -- -- -- -- --
HWnd -2 -8 -8 -7 -7 -7 -7 -7 -7 -7 -7 -7 -2 -2
HGst -- 0 -- -- -- -- -- -- -- -- -- -- -- --
R18/36
XWnd -3 -9 -9 -7 -7 -7 -7 -7 -7 -7 -7 -7 -3 -3
XGst -- 0 -- -- -- -- -- -- -- -- -- -- -- --
HWnd 7 3 3 4 4 4 4 4 4 4 4 4 3 3
HGst -- 0 -- -- -- -- -- -- -- -- -- -- -- --

Raw TAF
KMEM 281924Z 2819/2918 25009KT P6SM VCTS SCT035CB BKN045
  TEMPO 2820/2822 VRB10G15KT 4SM TSRA BKN035CB
  FM282300 24008KT P6SM FEW050 SCT250
  FM290800 22004KT P6SM VCSH SCT008 BKN025
  TEMPO 2911/2914 6SM -TSRA BR BKN008 OVC025CB


Raw METAR
KMEM 281954Z 20008KT 10SM FEW020 BKN039 31/25 A2994 RMK AO2 SLP135 T03110250
KMEM 281938Z 22007KT 10SM SCT020 BKN037 31/24 A2994 RMK AO2
KMEM 281902Z VRB06KT 10SM FEW018 BKN037 BKN200 31/24 A2995 RMK AO2
KMEM 281854Z 25006KT 10SM FEW016 SCT035 BKN200 30/24 A2995 RMK AO2 SLP139 T03000239
KMEM 281807Z 27006KT 10SM FEW016 SCT036 BKN250 29/24 A2996 RMK AO2
KMEM 281754Z 22008KT 10SM SCT016 BKN037 OVC080 29/24 A2996 RMK AO2 SLP142 60001 T02940244 10294 20244 50003
KMEM 281739Z 23006KT 10SM SCT016 BKN037 OVC080 29/24 A2997 RMK AO2

METAR Board
Radar Display
Forecast Discussion

TAF Board Legend

Potential Impact
Threat None Slight Moderate High
Visibility (sm) ≥5.1 5.1>X≥3 3>X≥1 <1
Ceiling (100 ft) ≥30.1 30.1>X≥10 10>X≥5 <5
Wind Speed (kt) <10 10≤X<20 20≤X<30 ≥30
Wind Gust (kt) <15 15≤X<25 25≤X<35 ≥35
Weather No Wx Reported VCTS,-TS,-FZRA,SN TS,FZRA +TS,+FZRA,+SN